sensor_id;sensor_type;location;lat;lon;timestamp;P1;durP1;ratioP1;P2;durP2;ratioP2
18304;SDS011;9278;52.156;21.048;2023-06-22T00:02:09;17.45;;;14.85;;
18304;SDS011;9278;52.156;21.048;2023-06-22T00:04:37;17.15;;;14.25;;
18304;SDS011;9278;52.156;21.048;2023-06-22T00:07:06;16.77;;;14.10;;
18304;SDS011;9278;52.156;21.048;2023-06-22T00:09:35;21.08;;;14.27;;
18304;SDS011;9278;52.156;21.048;2023-06-22T00:12:06;18.58;;;15.00;;
18304;SDS011;9278;52.156;21.048;2023-06-22T00:14:34;17.65;;;14.18;;
18304;SDS011;9278;52.156;21.048;2023-06-22T00:17:03;17.17;;;14.60;;
18304;SDS011;9278;52.156;21.048;2023-06-22T00:19:31;17.52;;;15.02;;
18304;SDS011;9278;52.156;21.048;2023-06-22T00:22:02;18.48;;;14.75;;
18304;SDS011;9278;52.156;21.048;2023-06-22T00:24:30;18.33;;;14.68;;
18304;SDS011;9278;52.156;21.048;2023-06-22T00:26:58;17.95;;;15.15;;
18304;SDS011;9278;52.156;21.048;2023-06-22T00:29:28;17.08;;;14.65;;
18304;SDS011;9278;52.156;21.048;2023-06-22T00:31:56;16.73;;;14.35;;
18304;SDS011;9278;52.156;21.048;2023-06-22T00:34:24;19.38;;;14.80;;
18304;SDS011;9278;52.156;21.048;2023-06-22T00:36:53;17.13;;;14.90;;
18304;SDS011;9278;52.156;21.048;2023-06-22T00:39:22;19.42;;;15.50;;
18304;SDS011;9278;52.156;21.048;2023-06-22T00:41:50;19.63;;;14.98;;
18304;SDS011;9278;52.156;21.048;2023-06-22T00:44:18;18.77;;;15.52;;
18304;SDS011;9278;52.156;21.048;2023-06-22T00:46:48;16.92;;;14.15;;
18304;SDS011;9278;52.156;21.048;2023-06-22T00:49:16;19.92;;;15.52;;
18304;SDS011;9278;52.156;21.048;2023-06-22T00:51:45;19.30;;;15.20;;
18304;SDS011;9278;52.156;21.048;2023-06-22T00:54:14;20.77;;;15.25;;
18304;SDS011;9278;52.156;21.048;2023-06-22T00:56:42;16.67;;;14.98;;
18304;SDS011;9278;52.156;21.048;2023-06-22T00:59:12;18.85;;;14.63;;
18304;SDS011;9278;52.156;21.048;2023-06-22T01:01:44;18.10;;;14.95;;
18304;SDS011;9278;52.156;21.048;2023-06-22T01:04:14;17.70;;;15.52;;
18304;SDS011;9278;52.156;21.048;2023-06-22T01:06:44;17.98;;;14.80;;
18304;SDS011;9278;52.156;21.048;2023-06-22T01:09:20;21.20;;;15.30;;
18304;SDS011;9278;52.156;21.048;2023-06-22T01:11:54;17.30;;;14.75;;
18304;SDS011;9278;52.156;21.048;2023-06-22T01:14:28;16.05;;;14.25;;
18304;SDS011;9278;52.156;21.048;2023-06-22T01:17:04;18.38;;;15.05;;
18304;SDS011;9278;52.156;21.048;2023-06-22T01:19:37;18.23;;;15.52;;
18304;SDS011;9278;52.156;21.048;2023-06-22T01:22:15;18.20;;;14.85;;
18304;SDS011;9278;52.156;21.048;2023-06-22T01:24:48;18.48;;;14.75;;
18304;SDS011;9278;52.156;21.048;2023-06-22T01:27:28;16.63;;;14.65;;
18304;SDS011;9278;52.156;21.048;2023-06-22T01:30:06;16.50;;;14.05;;
18304;SDS011;9278;52.156;21.048;2023-06-22T01:32:37;18.13;;;15.00;;
18304;SDS011;9278;52.156;21.048;2023-06-22T01:35:07;20.55;;;15.30;;
18304;SDS011;9278;52.156;21.048;2023-06-22T01:37:36;20.30;;;16.15;;
18304;SDS011;9278;52.156;21.048;2023-06-22T01:40:06;20.15;;;15.45;;
18304;SDS011;9278;52.156;21.048;2023-06-22T01:42:36;17.42;;;15.05;;
18304;SDS011;9278;52.156;21.048;2023-06-22T01:45:08;20.88;;;16.40;;
18304;SDS011;9278;52.156;21.048;2023-06-22T01:47:39;21.70;;;17.30;;
18304;SDS011;9278;52.156;21.048;2023-06-22T01:50:08;19.33;;;15.52;;
18304;SDS011;9278;52.156;21.048;2023-06-22T01:52:37;18.70;;;15.93;;
18304;SDS011;9278;52.156;21.048;2023-06-22T01:55:05;19.48;;;15.70;;
18304;SDS011;9278;52.156;21.048;2023-06-22T01:57:34;19.67;;;14.93;;
18304;SDS011;9278;52.156;21.048;2023-06-22T02:00:04;20.52;;;15.10;;
18304;SDS011;9278;52.156;21.048;2023-06-22T02:02:45;18.55;;;15.35;;
18304;SDS011;9278;52.156;21.048;2023-06-22T02:05:20;17.80;;;15.57;;
18304;SDS011;9278;52.156;21.048;2023-06-22T02:07:52;17.30;;;14.95;;
18304;SDS011;9278;52.156;21.048;2023-06-22T02:10:26;17.35;;;14.70;;
18304;SDS011;9278;52.156;21.048;2023-06-22T02:12:57;18.52;;;14.35;;
18304;SDS011;9278;52.156;21.048;2023-06-22T02:15:26;19.60;;;15.10;;
18304;SDS011;9278;52.156;21.048;2023-06-22T02:17:56;19.85;;;15.98;;
18304;SDS011;9278;52.156;21.048;2023-06-22T02:20:25;18.92;;;15.40;;
18304;SDS011;9278;52.156;21.048;2023-06-22T02:22:55;21.05;;;15.48;;
18304;SDS011;9278;52.156;21.048;2023-06-22T02:25:23;18.45;;;15.48;;
18304;SDS011;9278;52.156;21.048;2023-06-22T02:27:52;21.88;;;15.40;;
18304;SDS011;9278;52.156;21.048;2023-06-22T02:30:20;20.95;;;15.80;;
18304;SDS011;9278;52.156;21.048;2023-06-22T02:32:48;18.20;;;15.35;;
18304;SDS011;9278;52.156;21.048;2023-06-22T02:35:27;21.60;;;16.27;;
18304;SDS011;9278;52.156;21.048;2023-06-22T02:37:58;19.45;;;16.67;;
18304;SDS011;9278;52.156;21.048;2023-06-22T02:40:27;21.30;;;17.00;;
18304;SDS011;9278;52.156;21.048;2023-06-22T02:42:57;23.00;;;17.17;;
18304;SDS011;9278;52.156;21.048;2023-06-22T02:45:29;25.30;;;18.13;;
18304;SDS011;9278;52.156;21.048;2023-06-22T02:47:57;23.65;;;18.20;;
18304;SDS011;9278;52.156;21.048;2023-06-22T02:50:27;29.17;;;20.00;;
18304;SDS011;9278;52.156;21.048;2023-06-22T02:52:57;25.70;;;19.73;;
18304;SDS011;9278;52.156;21.048;2023-06-22T02:55:28;27.10;;;19.95;;
18304;SDS011;9278;52.156;21.048;2023-06-22T02:57:58;28.60;;;21.05;;
18304;SDS011;9278;52.156;21.048;2023-06-22T03:00:29;29.73;;;20.83;;
18304;SDS011;9278;52.156;21.048;2023-06-22T03:02:58;32.50;;;22.27;;
18304;SDS011;9278;52.156;21.048;2023-06-22T03:05:28;32.35;;;22.27;;
18304;SDS011;9278;52.156;21.048;2023-06-22T03:07:58;31.48;;;21.90;;
18304;SDS011;9278;52.156;21.048;2023-06-22T03:10:30;33.88;;;22.50;;
18304;SDS011;9278;52.156;21.048;2023-06-22T03:12:59;34.22;;;21.70;;
18304;SDS011;9278;52.156;21.048;2023-06-22T03:15:27;36.25;;;22.02;;
18304;SDS011;9278;52.156;21.048;2023-06-22T03:17:58;34.08;;;22.38;;
18304;SDS011;9278;52.156;21.048;2023-06-22T03:20:26;33.15;;;22.85;;
18304;SDS011;9278;52.156;21.048;2023-06-22T03:23:00;32.08;;;22.60;;
18304;SDS011;9278;52.156;21.048;2023-06-22T03:25:28;33.78;;;23.55;;
18304;SDS011;9278;52.156;21.048;2023-06-22T03:27:57;30.85;;;22.50;;
18304;SDS011;9278;52.156;21.048;2023-06-22T03:30:25;34.63;;;22.70;;
18304;SDS011;9278;52.156;21.048;2023-06-22T03:32:54;33.15;;;23.20;;
18304;SDS011;9278;52.156;21.048;2023-06-22T03:35:22;30.70;;;22.25;;
18304;SDS011;9278;52.156;21.048;2023-06-22T03:37:52;30.75;;;22.10;;
18304;SDS011;9278;52.156;21.048;2023-06-22T03:40:20;31.20;;;22.33;;
18304;SDS011;9278;52.156;21.048;2023-06-22T03:42:50;30.05;;;21.85;;
18304;SDS011;9278;52.156;21.048;2023-06-22T03:45:18;29.95;;;22.15;;
18304;SDS011;9278;52.156;21.048;2023-06-22T03:47:46;30.08;;;21.60;;
18304;SDS011;9278;52.156;21.048;2023-06-22T03:50:15;31.52;;;22.60;;
18304;SDS011;9278;52.156;21.048;2023-06-22T03:52:43;27.65;;;21.35;;
18304;SDS011;9278;52.156;21.048;2023-06-22T03:55:13;30.77;;;22.27;;
18304;SDS011;9278;52.156;21.048;2023-06-22T03:57:41;29.42;;;22.63;;
18304;SDS011;9278;52.156;21.048;2023-06-22T04:00:10;32.67;;;24.27;;
18304;SDS011;9278;52.156;21.048;2023-06-22T04:02:40;28.90;;;20.92;;
18304;SDS011;9278;52.156;21.048;2023-06-22T04:05:09;29.90;;;21.80;;
18304;SDS011;9278;52.156;21.048;2023-06-22T04:07:37;31.23;;;23.38;;
18304;SDS011;9278;52.156;21.048;2023-06-22T04:10:06;31.63;;;23.92;;
18304;SDS011;9278;52.156;21.048;2023-06-22T04:12:39;30.95;;;23.33;;
18304;SDS011;9278;52.156;21.048;2023-06-22T04:15:08;32.45;;;22.70;;
18304;SDS011;9278;52.156;21.048;2023-06-22T04:17:38;30.95;;;23.27;;
18304;SDS011;9278;52.156;21.048;2023-06-22T04:20:07;31.77;;;22.65;;
18304;SDS011;9278;52.156;21.048;2023-06-22T04:22:36;31.33;;;23.27;;
18304;SDS011;9278;52.156;21.048;2023-06-22T04:25:05;32.65;;;23.20;;
18304;SDS011;9278;52.156;21.048;2023-06-22T04:27:34;29.92;;;23.15;;
18304;SDS011;9278;52.156;21.048;2023-06-22T04:30:08;29.75;;;21.52;;
18304;SDS011;9278;52.156;21.048;2023-06-22T04:32:37;27.48;;;20.05;;
18304;SDS011;9278;52.156;21.048;2023-06-22T04:35:06;28.23;;;20.05;;
18304;SDS011;9278;52.156;21.048;2023-06-22T04:37:35;27.10;;;21.25;;
18304;SDS011;9278;52.156;21.048;2023-06-22T04:40:03;26.13;;;19.98;;
18304;SDS011;9278;52.156;21.048;2023-06-22T04:42:33;25.05;;;19.75;;
18304;SDS011;9278;52.156;21.048;2023-06-22T04:45:02;25.10;;;19.25;;
18304;SDS011;9278;52.156;21.048;2023-06-22T04:47:32;29.63;;;19.88;;
18304;SDS011;9278;52.156;21.048;2023-06-22T04:50:01;22.55;;;18.30;;
18304;SDS011;9278;52.156;21.048;2023-06-22T04:52:32;24.83;;;18.33;;
18304;SDS011;9278;52.156;21.048;2023-06-22T04:55:00;23.05;;;18.25;;
18304;SDS011;9278;52.156;21.048;2023-06-22T04:57:29;27.33;;;20.80;;
18304;SDS011;9278;52.156;21.048;2023-06-22T04:59:59;25.67;;;19.38;;
18304;SDS011;9278;52.156;21.048;2023-06-22T05:02:39;23.02;;;18.58;;
18304;SDS011;9278;52.156;21.048;2023-06-22T05:05:08;26.83;;;18.48;;
18304;SDS011;9278;52.156;21.048;2023-06-22T05:07:41;22.42;;;17.73;;
18304;SDS011;9278;52.156;21.048;2023-06-22T05:10:11;25.25;;;18.20;;
18304;SDS011;9278;52.156;21.048;2023-06-22T05:12:39;27.60;;;19.30;;
18304;SDS011;9278;52.156;21.048;2023-06-22T05:15:09;24.65;;;18.52;;
18304;SDS011;9278;52.156;21.048;2023-06-22T05:17:38;22.33;;;18.40;;
18304;SDS011;9278;52.156;21.048;2023-06-22T05:20:10;25.48;;;18.98;;
18304;SDS011;9278;52.156;21.048;2023-06-22T05:22:39;26.55;;;17.98;;
18304;SDS011;9278;52.156;21.048;2023-06-22T05:25:10;24.00;;;18.27;;
18304;SDS011;9278;52.156;21.048;2023-06-22T05:27:39;25.05;;;18.20;;
18304;SDS011;9278;52.156;21.048;2023-06-22T05:30:08;24.45;;;18.73;;
18304;SDS011;9278;52.156;21.048;2023-06-22T05:32:39;25.58;;;18.42;;
18304;SDS011;9278;52.156;21.048;2023-06-22T05:35:08;25.33;;;19.60;;
18304;SDS011;9278;52.156;21.048;2023-06-22T05:37:36;23.42;;;18.42;;
18304;SDS011;9278;52.156;21.048;2023-06-22T05:40:05;27.20;;;18.85;;
18304;SDS011;9278;52.156;21.048;2023-06-22T05:42:36;23.38;;;17.90;;
18304;SDS011;9278;52.156;21.048;2023-06-22T05:45:05;24.67;;;17.73;;
18304;SDS011;9278;52.156;21.048;2023-06-22T05:47:33;23.73;;;17.77;;
18304;SDS011;9278;52.156;21.048;2023-06-22T05:50:03;24.92;;;18.55;;
18304;SDS011;9278;52.156;21.048;2023-06-22T05:52:38;23.00;;;17.15;;
18304;SDS011;9278;52.156;21.048;2023-06-22T05:55:07;24.58;;;17.02;;
18304;SDS011;9278;52.156;21.048;2023-06-22T05:57:36;28.00;;;17.65;;
18304;SDS011;9278;52.156;21.048;2023-06-22T06:00:04;25.90;;;17.48;;
18304;SDS011;9278;52.156;21.048;2023-06-22T06:02:37;24.30;;;17.55;;
18304;SDS011;9278;52.156;21.048;2023-06-22T06:05:12;25.48;;;17.42;;
18304;SDS011;9278;52.156;21.048;2023-06-22T06:07:41;22.27;;;17.10;;
18304;SDS011;9278;52.156;21.048;2023-06-22T06:10:09;22.58;;;15.75;;
18304;SDS011;9278;52.156;21.048;2023-06-22T06:12:37;21.80;;;17.52;;
18304;SDS011;9278;52.156;21.048;2023-06-22T06:15:06;22.48;;;16.17;;
18304;SDS011;9278;52.156;21.048;2023-06-22T06:17:44;21.42;;;16.13;;
18304;SDS011;9278;52.156;21.048;2023-06-22T06:20:14;23.10;;;16.75;;
18304;SDS011;9278;52.156;21.048;2023-06-22T06:22:43;22.08;;;15.90;;
18304;SDS011;9278;52.156;21.048;2023-06-22T06:25:11;23.00;;;16.58;;
18304;SDS011;9278;52.156;21.048;2023-06-22T06:27:42;18.80;;;15.40;;
18304;SDS011;9278;52.156;21.048;2023-06-22T06:30:11;21.23;;;16.38;;
18304;SDS011;9278;52.156;21.048;2023-06-22T06:32:41;19.60;;;14.80;;
18304;SDS011;9278;52.156;21.048;2023-06-22T06:35:10;20.98;;;15.20;;
18304;SDS011;9278;52.156;21.048;2023-06-22T06:37:41;20.65;;;15.55;;
18304;SDS011;9278;52.156;21.048;2023-06-22T06:40:11;21.08;;;14.25;;
18304;SDS011;9278;52.156;21.048;2023-06-22T06:42:41;19.50;;;14.68;;
18304;SDS011;9278;52.156;21.048;2023-06-22T06:45:12;19.73;;;15.10;;
18304;SDS011;9278;52.156;21.048;2023-06-22T06:47:42;20.20;;;14.65;;
18304;SDS011;9278;52.156;21.048;2023-06-22T06:50:11;20.63;;;13.55;;
18304;SDS011;9278;52.156;21.048;2023-06-22T06:52:41;20.95;;;13.82;;
18304;SDS011;9278;52.156;21.048;2023-06-22T06:55:10;20.27;;;14.45;;
18304;SDS011;9278;52.156;21.048;2023-06-22T06:57:39;18.85;;;14.27;;
18304;SDS011;9278;52.156;21.048;2023-06-22T07:00:08;20.17;;;13.70;;
18304;SDS011;9278;52.156;21.048;2023-06-22T07:02:51;17.65;;;13.50;;
18304;SDS011;9278;52.156;21.048;2023-06-22T07:05:20;21.67;;;13.80;;
18304;SDS011;9278;52.156;21.048;2023-06-22T07:07:50;20.05;;;14.88;;
18304;SDS011;9278;52.156;21.048;2023-06-22T07:10:20;22.33;;;14.00;;
18304;SDS011;9278;52.156;21.048;2023-06-22T07:12:48;18.25;;;13.00;;
18304;SDS011;9278;52.156;21.048;2023-06-22T07:15:16;15.63;;;12.45;;
18304;SDS011;9278;52.156;21.048;2023-06-22T07:17:44;20.48;;;12.60;;
18304;SDS011;9278;52.156;21.048;2023-06-22T07:20:13;15.85;;;12.65;;
18304;SDS011;9278;52.156;21.048;2023-06-22T07:22:43;18.05;;;13.05;;
18304;SDS011;9278;52.156;21.048;2023-06-22T07:25:13;18.48;;;12.60;;
18304;SDS011;9278;52.156;21.048;2023-06-22T07:27:45;17.67;;;12.25;;
18304;SDS011;9278;52.156;21.048;2023-06-22T07:30:24;16.60;;;12.32;;
18304;SDS011;9278;52.156;21.048;2023-06-22T07:32:52;15.48;;;11.70;;
18304;SDS011;9278;52.156;21.048;2023-06-22T07:35:21;16.67;;;11.55;;
18304;SDS011;9278;52.156;21.048;2023-06-22T07:37:49;14.73;;;11.02;;
18304;SDS011;9278;52.156;21.048;2023-06-22T07:40:19;14.30;;;10.73;;
18304;SDS011;9278;52.156;21.048;2023-06-22T07:42:47;13.88;;;10.30;;
18304;SDS011;9278;52.156;21.048;2023-06-22T07:45:18;15.38;;;10.23;;
18304;SDS011;9278;52.156;21.048;2023-06-22T07:47:46;12.05;;;9.18;;
18304;SDS011;9278;52.156;21.048;2023-06-22T07:50:15;14.52;;;9.13;;
18304;SDS011;9278;52.156;21.048;2023-06-22T07:52:43;12.38;;;8.35;;
18304;SDS011;9278;52.156;21.048;2023-06-22T07:55:12;14.30;;;8.10;;
18304;SDS011;9278;52.156;21.048;2023-06-22T07:57:41;10.65;;;8.02;;
18304;SDS011;9278;52.156;21.048;2023-06-22T08:00:10;10.05;;;7.65;;
18304;SDS011;9278;52.156;21.048;2023-06-22T08:02:42;10.77;;;7.65;;
18304;SDS011;9278;52.156;21.048;2023-06-22T08:05:12;9.07;;;7.13;;
18304;SDS011;9278;52.156;21.048;2023-06-22T08:07:44;9.10;;;6.75;;
18304;SDS011;9278;52.156;21.048;2023-06-22T08:10:15;10.02;;;6.45;;
18304;SDS011;9278;52.156;21.048;2023-06-22T08:12:45;11.55;;;6.40;;
18304;SDS011;9278;52.156;21.048;2023-06-22T08:15:13;11.05;;;6.30;;
18304;SDS011;9278;52.156;21.048;2023-06-22T08:17:42;8.00;;;6.43;;
18304;SDS011;9278;52.156;21.048;2023-06-22T08:20:11;11.88;;;6.80;;
18304;SDS011;9278;52.156;21.048;2023-06-22T08:22:40;9.55;;;6.40;;
18304;SDS011;9278;52.156;21.048;2023-06-22T08:25:09;11.63;;;6.80;;
18304;SDS011;9278;52.156;21.048;2023-06-22T08:27:39;9.00;;;5.93;;
18304;SDS011;9278;52.156;21.048;2023-06-22T08:30:09;12.30;;;6.05;;
18304;SDS011;9278;52.156;21.048;2023-06-22T08:32:38;8.82;;;5.80;;
18304;SDS011;9278;52.156;21.048;2023-06-22T08:35:07;9.52;;;6.05;;
18304;SDS011;9278;52.156;21.048;2023-06-22T08:37:36;9.13;;;5.80;;
18304;SDS011;9278;52.156;21.048;2023-06-22T08:40:07;12.38;;;6.03;;
18304;SDS011;9278;52.156;21.048;2023-06-22T08:42:36;8.93;;;5.70;;
18304;SDS011;9278;52.156;21.048;2023-06-22T08:45:05;10.07;;;6.03;;
18304;SDS011;9278;52.156;21.048;2023-06-22T08:47:36;8.10;;;5.47;;
18304;SDS011;9278;52.156;21.048;2023-06-22T08:50:04;9.15;;;5.55;;
18304;SDS011;9278;52.156;21.048;2023-06-22T08:52:34;8.00;;;5.15;;
18304;SDS011;9278;52.156;21.048;2023-06-22T08:55:04;6.88;;;5.50;;
18304;SDS011;9278;52.156;21.048;2023-06-22T08:57:34;9.70;;;6.07;;
18304;SDS011;9278;52.156;21.048;2023-06-22T09:00:04;7.90;;;5.20;;
18304;SDS011;9278;52.156;21.048;2023-06-22T09:02:43;6.28;;;4.95;;
18304;SDS011;9278;52.156;21.048;2023-06-22T09:05:12;7.13;;;5.00;;
18304;SDS011;9278;52.156;21.048;2023-06-22T09:07:41;6.68;;;4.85;;
18304;SDS011;9278;52.156;21.048;2023-06-22T09:10:10;8.68;;;5.22;;
18304;SDS011;9278;52.156;21.048;2023-06-22T09:12:38;11.18;;;5.00;;
18304;SDS011;9278;52.156;21.048;2023-06-22T09:15:07;8.65;;;5.10;;
18304;SDS011;9278;52.156;21.048;2023-06-22T09:17:44;7.97;;;4.93;;
18304;SDS011;9278;52.156;21.048;2023-06-22T09:20:14;6.80;;;4.93;;
18304;SDS011;9278;52.156;21.048;2023-06-22T09:22:42;7.80;;;4.57;;
18304;SDS011;9278;52.156;21.048;2023-06-22T09:25:10;6.32;;;4.32;;
18304;SDS011;9278;52.156;21.048;2023-06-22T09:27:39;5.45;;;4.38;;
18304;SDS011;9278;52.156;21.048;2023-06-22T09:30:07;7.05;;;4.00;;
18304;SDS011;9278;52.156;21.048;2023-06-22T09:32:36;10.85;;;4.32;;
18304;SDS011;9278;52.156;21.048;2023-06-22T09:35:06;6.40;;;3.85;;
18304;SDS011;9278;52.156;21.048;2023-06-22T09:37:38;9.02;;;3.75;;
18304;SDS011;9278;52.156;21.048;2023-06-22T09:40:07;5.07;;;3.95;;
18304;SDS011;9278;52.156;21.048;2023-06-22T09:42:37;6.35;;;4.22;;
18304;SDS011;9278;52.156;21.048;2023-06-22T09:45:06;5.38;;;3.70;;
18304;SDS011;9278;52.156;21.048;2023-06-22T09:47:35;6.55;;;4.07;;
18304;SDS011;9278;52.156;21.048;2023-06-22T09:50:04;9.90;;;4.25;;
18304;SDS011;9278;52.156;21.048;2023-06-22T09:52:35;6.68;;;3.83;;
18304;SDS011;9278;52.156;21.048;2023-06-22T09:55:06;6.85;;;3.70;;
18304;SDS011;9278;52.156;21.048;2023-06-22T09:57:35;5.82;;;3.53;;
18304;SDS011;9278;52.156;21.048;2023-06-22T10:00:04;4.95;;;3.72;;
18304;SDS011;9278;52.156;21.048;2023-06-22T10:02:38;7.88;;;4.05;;
18304;SDS011;9278;52.156;21.048;2023-06-22T10:05:09;6.10;;;3.60;;
18304;SDS011;9278;52.156;21.048;2023-06-22T10:07:38;5.55;;;3.80;;
18304;SDS011;9278;52.156;21.048;2023-06-22T10:10:09;5.55;;;3.70;;
18304;SDS011;9278;52.156;21.048;2023-06-22T10:12:40;4.57;;;3.50;;
18304;SDS011;9278;52.156;21.048;2023-06-22T10:15:10;6.93;;;3.55;;
18304;SDS011;9278;52.156;21.048;2023-06-22T10:17:39;6.50;;;3.88;;
18304;SDS011;9278;52.156;21.048;2023-06-22T10:20:09;5.53;;;3.55;;
18304;SDS011;9278;52.156;21.048;2023-06-22T10:22:39;7.15;;;3.72;;
18304;SDS011;9278;52.156;21.048;2023-06-22T10:25:08;5.50;;;3.80;;
18304;SDS011;9278;52.156;21.048;2023-06-22T10:27:37;6.45;;;3.60;;
18304;SDS011;9278;52.156;21.048;2023-06-22T10:30:07;8.65;;;3.78;;
18304;SDS011;9278;52.156;21.048;2023-06-22T10:32:39;6.05;;;3.72;;
18304;SDS011;9278;52.156;21.048;2023-06-22T10:35:11;6.75;;;3.60;;
18304;SDS011;9278;52.156;21.048;2023-06-22T10:37:43;7.03;;;3.65;;
18304;SDS011;9278;52.156;21.048;2023-06-22T10:40:12;4.22;;;3.20;;
18304;SDS011;9278;52.156;21.048;2023-06-22T10:42:42;4.70;;;3.30;;
18304;SDS011;9278;52.156;21.048;2023-06-22T10:45:10;6.45;;;4.00;;
18304;SDS011;9278;52.156;21.048;2023-06-22T10:47:40;8.98;;;3.95;;
18304;SDS011;9278;52.156;21.048;2023-06-22T10:50:09;4.95;;;3.67;;
18304;SDS011;9278;52.156;21.048;2023-06-22T10:52:39;7.80;;;4.22;;
18304;SDS011;9278;52.156;21.048;2023-06-22T10:55:08;6.60;;;3.60;;
18304;SDS011;9278;52.156;21.048;2023-06-22T10:57:37;5.97;;;3.55;;
18304;SDS011;9278;52.156;21.048;2023-06-22T11:00:08;6.00;;;3.88;;
18304;SDS011;9278;52.156;21.048;2023-06-22T11:02:38;6.18;;;3.65;;
18304;SDS011;9278;52.156;21.048;2023-06-22T11:05:06;5.03;;;3.58;;
18304;SDS011;9278;52.156;21.048;2023-06-22T11:07:36;5.45;;;3.60;;
18304;SDS011;9278;52.156;21.048;2023-06-22T11:10:10;4.53;;;3.90;;
18304;SDS011;9278;52.156;21.048;2023-06-22T11:12:39;6.68;;;4.10;;
18304;SDS011;9278;52.156;21.048;2023-06-22T11:15:09;9.18;;;3.92;;
18304;SDS011;9278;52.156;21.048;2023-06-22T11:17:37;7.38;;;4.22;;
18304;SDS011;9278;52.156;21.048;2023-06-22T11:20:06;10.15;;;4.50;;
18304;SDS011;9278;52.156;21.048;2023-06-22T11:22:39;6.30;;;3.97;;
18304;SDS011;9278;52.156;21.048;2023-06-22T11:25:08;5.43;;;4.00;;
18304;SDS011;9278;52.156;21.048;2023-06-22T11:27:38;10.63;;;3.83;;
18304;SDS011;9278;52.156;21.048;2023-06-22T11:30:07;7.00;;;3.67;;
18304;SDS011;9278;52.156;21.048;2023-06-22T11:32:36;10.65;;;4.22;;
18304;SDS011;9278;52.156;21.048;2023-06-22T11:35:04;9.10;;;3.88;;
18304;SDS011;9278;52.156;21.048;2023-06-22T11:37:33;4.45;;;3.88;;
18304;SDS011;9278;52.156;21.048;2023-06-22T11:40:03;6.70;;;3.67;;
18304;SDS011;9278;52.156;21.048;2023-06-22T11:42:35;5.05;;;4.18;;
18304;SDS011;9278;52.156;21.048;2023-06-22T11:45:04;7.65;;;4.25;;
18304;SDS011;9278;52.156;21.048;2023-06-22T11:47:33;6.35;;;4.20;;
18304;SDS011;9278;52.156;21.048;2023-06-22T11:50:02;8.65;;;4.15;;
18304;SDS011;9278;52.156;21.048;2023-06-22T11:52:31;8.30;;;4.03;;
18304;SDS011;9278;52.156;21.048;2023-06-22T11:55:04;6.18;;;3.95;;
18304;SDS011;9278;52.156;21.048;2023-06-22T11:57:33;6.50;;;3.95;;
18304;SDS011;9278;52.156;21.048;2023-06-22T12:00:04;9.85;;;4.30;;
18304;SDS011;9278;52.156;21.048;2023-06-22T12:02:43;7.57;;;4.40;;
18304;SDS011;9278;52.156;21.048;2023-06-22T12:05:12;5.68;;;4.00;;
18304;SDS011;9278;52.156;21.048;2023-06-22T12:07:40;7.15;;;4.50;;
18304;SDS011;9278;52.156;21.048;2023-06-22T12:10:10;7.82;;;4.20;;
18304;SDS011;9278;52.156;21.048;2023-06-22T12:12:39;8.55;;;4.65;;
18304;SDS011;9278;52.156;21.048;2023-06-22T12:15:08;5.35;;;3.72;;
18304;SDS011;9278;52.156;21.048;2023-06-22T12:17:37;5.22;;;3.88;;
18304;SDS011;9278;52.156;21.048;2023-06-22T12:20:06;11.70;;;4.35;;
18304;SDS011;9278;52.156;21.048;2023-06-22T12:22:35;7.22;;;4.25;;
18304;SDS011;9278;52.156;21.048;2023-06-22T12:25:05;7.78;;;4.10;;
18304;SDS011;9278;52.156;21.048;2023-06-22T12:27:35;7.13;;;4.07;;
18304;SDS011;9278;52.156;21.048;2023-06-22T12:30:04;7.28;;;4.00;;
18304;SDS011;9278;52.156;21.048;2023-06-22T12:32:33;8.25;;;4.57;;
18304;SDS011;9278;52.156;21.048;2023-06-22T12:35:01;5.97;;;3.72;;
18304;SDS011;9278;52.156;21.048;2023-06-22T12:37:29;10.10;;;4.00;;
18304;SDS011;9278;52.156;21.048;2023-06-22T12:39:59;5.50;;;4.10;;
18304;SDS011;9278;52.156;21.048;2023-06-22T12:42:27;5.72;;;4.07;;
18304;SDS011;9278;52.156;21.048;2023-06-22T12:44:56;5.72;;;4.15;;
18304;SDS011;9278;52.156;21.048;2023-06-22T12:47:25;5.70;;;3.65;;
18304;SDS011;9278;52.156;21.048;2023-06-22T12:49:53;6.32;;;4.10;;
18304;SDS011;9278;52.156;21.048;2023-06-22T12:52:21;7.00;;;4.00;;
18304;SDS011;9278;52.156;21.048;2023-06-22T12:54:49;9.32;;;3.95;;
18304;SDS011;9278;52.156;21.048;2023-06-22T12:57:21;7.55;;;3.97;;
18304;SDS011;9278;52.156;21.048;2023-06-22T12:59:50;8.70;;;4.07;;
18304;SDS011;9278;52.156;21.048;2023-06-22T13:02:19;6.07;;;4.30;;
18304;SDS011;9278;52.156;21.048;2023-06-22T13:04:47;5.28;;;4.00;;
18304;SDS011;9278;52.156;21.048;2023-06-22T13:07:16;5.03;;;3.80;;
18304;SDS011;9278;52.156;21.048;2023-06-22T13:09:49;9.10;;;4.18;;
18304;SDS011;9278;52.156;21.048;2023-06-22T13:12:19;5.70;;;3.72;;
18304;SDS011;9278;52.156;21.048;2023-06-22T13:14:48;5.45;;;4.10;;
18304;SDS011;9278;52.156;21.048;2023-06-22T13:17:16;9.65;;;4.20;;
18304;SDS011;9278;52.156;21.048;2023-06-22T13:19:46;5.35;;;4.10;;
18304;SDS011;9278;52.156;21.048;2023-06-22T13:22:28;5.28;;;4.10;;
18304;SDS011;9278;52.156;21.048;2023-06-22T13:24:58;4.95;;;4.05;;
18304;SDS011;9278;52.156;21.048;2023-06-22T13:27:28;4.38;;;3.53;;
18304;SDS011;9278;52.156;21.048;2023-06-22T13:29:56;5.72;;;3.70;;
18304;SDS011;9278;52.156;21.048;2023-06-22T13:32:24;5.22;;;4.03;;
18304;SDS011;9278;52.156;21.048;2023-06-22T13:34:54;5.47;;;3.80;;
18304;SDS011;9278;52.156;21.048;2023-06-22T13:37:22;6.10;;;4.00;;
18304;SDS011;9278;52.156;21.048;2023-06-22T13:39:50;4.90;;;3.70;;
18304;SDS011;9278;52.156;21.048;2023-06-22T13:42:18;6.18;;;4.13;;
18304;SDS011;9278;52.156;21.048;2023-06-22T13:44:47;5.07;;;3.63;;
18304;SDS011;9278;52.156;21.048;2023-06-22T13:47:15;5.28;;;4.07;;
18304;SDS011;9278;52.156;21.048;2023-06-22T13:49:43;6.25;;;4.10;;
18304;SDS011;9278;52.156;21.048;2023-06-22T13:52:13;5.78;;;3.70;;
18304;SDS011;9278;52.156;21.048;2023-06-22T13:54:41;5.32;;;3.75;;
18304;SDS011;9278;52.156;21.048;2023-06-22T13:57:09;6.07;;;3.90;;
18304;SDS011;9278;52.156;21.048;2023-06-22T13:59:38;6.63;;;4.15;;
18304;SDS011;9278;52.156;21.048;2023-06-22T14:02:06;8.63;;;3.70;;
18304;SDS011;9278;52.156;21.048;2023-06-22T14:04:35;5.13;;;3.85;;
18304;SDS011;9278;52.156;21.048;2023-06-22T14:07:03;6.63;;;3.90;;
18304;SDS011;9278;52.156;21.048;2023-06-22T14:09:33;7.03;;;4.13;;
18304;SDS011;9278;52.156;21.048;2023-06-22T14:12:04;6.63;;;4.28;;
18304;SDS011;9278;52.156;21.048;2023-06-22T14:14:33;8.43;;;4.60;;
18304;SDS011;9278;52.156;21.048;2023-06-22T14:17:02;6.65;;;4.15;;
18304;SDS011;9278;52.156;21.048;2023-06-22T14:19:31;7.60;;;4.43;;
18304;SDS011;9278;52.156;21.048;2023-06-22T14:21:59;7.07;;;3.83;;
18304;SDS011;9278;52.156;21.048;2023-06-22T14:24:27;7.35;;;4.20;;
18304;SDS011;9278;52.156;21.048;2023-06-22T14:26:58;7.05;;;4.20;;
18304;SDS011;9278;52.156;21.048;2023-06-22T14:29:29;5.10;;;4.13;;
18304;SDS011;9278;52.156;21.048;2023-06-22T14:31:57;8.38;;;4.40;;
18304;SDS011;9278;52.156;21.048;2023-06-22T14:34:26;6.72;;;4.18;;
18304;SDS011;9278;52.156;21.048;2023-06-22T14:36:54;6.45;;;3.88;;
18304;SDS011;9278;52.156;21.048;2023-06-22T14:39:23;6.35;;;3.92;;
18304;SDS011;9278;52.156;21.048;2023-06-22T14:41:51;6.15;;;4.32;;
18304;SDS011;9278;52.156;21.048;2023-06-22T14:44:21;6.00;;;3.92;;
18304;SDS011;9278;52.156;21.048;2023-06-22T14:46:49;4.93;;;3.60;;
18304;SDS011;9278;52.156;21.048;2023-06-22T14:49:18;5.82;;;3.53;;